New Richmond Regional Airport
KRNH : now visible

Airfield :











YOU CAN JOIN US ON...

 
LOGIN :

Register | Disclaimer

   EN    FR    IT 

 









Legend :    VFR   Marginal VFR   IFR   Intensive IFR   Very Intensive IFR
Visi :
Ceiling :
>= 8 km
>= 3000ft
5 to 8 km
1000 to 3000 ft
1500m to 5 km
500 to 1000 ft
800 to 1500m
200 to 500 ft
< 800m
< 200 ft
Symbols :   Thunderstorms  Fog  Heavy snow  Heavy precipitations  Wind > 20 kt






- Airport Elevation : 998 ft


KRNH - New Richmond Regional

CURRENT METAR :
  • 080355Z AUTO 00000KT 10SM CLR M15/M17 A2994 RMK AO2 T11531175

EXPIRED METARs :
  • 080335Z AUTO 00000KT 10SM CLR M15/M17 A2994 RMK AO2 T11531173
  • 080255Z AUTO 05003KT 10SM CLR M15/M17 A2995 RMK AO2 T11471166
  • 080235Z AUTO 00000KT 10SM CLR M14/M16 A2997 RMK AO2 T11381158
  • 080215Z AUTO 00000KT 10SM CLR M13/M15 A2997 RMK AO2 T11291150
  • 080155Z AUTO 00000KT 10SM CLR M12/M14 A2997 RMK AO2 T11231145
  • 080135Z AUTO 00000KT 7SM -SN SCT060 M11/M14 A2997 RMK AO2 T11151139

TAF KRNH
Valid from the 08 at 00:00 until the 09 at 00:00 UTC


072334Z 0800/0824 00000KT P6SM SCT020 OVC060
TEMPO 0800/0801 5SM -SN
FM080400 00000KT P6SM SCT200
FM080900 00000KT 6SM BR SCT015
FM081900 16004KT P6SM SCT120
KZMP FIR / North America



MET'MAP, your aeronautical weather chart ! - Copyright ORBIFLY December 2007 - Disclaimer

ORBIFLY MET'MAP TEAM :

Programming & Development : Alexandra Zaïnal
Concept & original design : Baudouin d'Aumeries
Assistance for programming : Marc-Olivier Méhu
Technical & hardware support : Manuel Goepfert

Contact : metmap@orbifly.com




SOURCES & CREDITS :

   NOAA       Earth
Advisory